sensor_id;sensor_type;location;lat;lon;timestamp;P1;durP1;ratioP1;P2;durP2;ratioP2
49488;SDS011;35382;51.484;11.476;2022-08-19T00:00:14;46.55;;;43.10;;
49488;SDS011;35382;51.484;11.476;2022-08-19T00:01:56;48.33;;;44.53;;
49488;SDS011;35382;51.484;11.476;2022-08-19T00:03:38;47.92;;;44.42;;
49488;SDS011;35382;51.484;11.476;2022-08-19T00:05:21;45.63;;;42.03;;
49488;SDS011;35382;51.484;11.476;2022-08-19T00:07:06;47.72;;;44.05;;
49488;SDS011;35382;51.484;11.476;2022-08-19T00:08:47;48.00;;;44.25;;
49488;SDS011;35382;51.484;11.476;2022-08-19T00:10:28;47.45;;;43.88;;
49488;SDS011;35382;51.484;11.476;2022-08-19T00:12:09;47.67;;;43.95;;
49488;SDS011;35382;51.484;11.476;2022-08-19T00:13:50;48.60;;;44.80;;
49488;SDS011;35382;51.484;11.476;2022-08-19T00:15:31;48.92;;;45.13;;
49488;SDS011;35382;51.484;11.476;2022-08-19T00:17:12;50.75;;;46.75;;
49488;SDS011;35382;51.484;11.476;2022-08-19T00:18:53;49.03;;;45.33;;
49488;SDS011;35382;51.484;11.476;2022-08-19T00:20:35;52.00;;;47.88;;
49488;SDS011;35382;51.484;11.476;2022-08-19T00:22:18;50.47;;;46.45;;
49488;SDS011;35382;51.484;11.476;2022-08-19T00:23:59;48.90;;;45.10;;
49488;SDS011;35382;51.484;11.476;2022-08-19T00:25:41;50.65;;;46.97;;
49488;SDS011;35382;51.484;11.476;2022-08-19T00:27:22;52.15;;;47.83;;
49488;SDS011;35382;51.484;11.476;2022-08-19T00:29:03;51.30;;;47.30;;
49488;SDS011;35382;51.484;11.476;2022-08-19T00:30:46;49.42;;;45.55;;
49488;SDS011;35382;51.484;11.476;2022-08-19T00:32:27;49.67;;;45.75;;
49488;SDS011;35382;51.484;11.476;2022-08-19T00:34:08;51.08;;;46.67;;
49488;SDS011;35382;51.484;11.476;2022-08-19T00:35:49;49.97;;;46.00;;
49488;SDS011;35382;51.484;11.476;2022-08-19T00:37:30;50.50;;;46.13;;
49488;SDS011;35382;51.484;11.476;2022-08-19T00:39:11;48.72;;;44.88;;
49488;SDS011;35382;51.484;11.476;2022-08-19T00:40:53;53.00;;;48.60;;
49488;SDS011;35382;51.484;11.476;2022-08-19T00:42:34;50.85;;;46.67;;
49488;SDS011;35382;51.484;11.476;2022-08-19T00:44:17;53.28;;;48.88;;
49488;SDS011;35382;51.484;11.476;2022-08-19T00:46:02;55.80;;;51.00;;
49488;SDS011;35382;51.484;11.476;2022-08-19T00:47:45;55.22;;;50.90;;
49488;SDS011;35382;51.484;11.476;2022-08-19T00:49:32;53.22;;;48.92;;
49488;SDS011;35382;51.484;11.476;2022-08-19T00:51:16;51.85;;;47.67;;
49488;SDS011;35382;51.484;11.476;2022-08-19T00:52:57;50.35;;;46.35;;
49488;SDS011;35382;51.484;11.476;2022-08-19T00:54:40;51.70;;;47.22;;
49488;SDS011;35382;51.484;11.476;2022-08-19T00:56:22;52.47;;;48.03;;
49488;SDS011;35382;51.484;11.476;2022-08-19T00:58:06;55.15;;;50.88;;
49488;SDS011;35382;51.484;11.476;2022-08-19T00:59:51;53.42;;;49.28;;
49488;SDS011;35382;51.484;11.476;2022-08-19T01:01:36;54.88;;;50.35;;
49488;SDS011;35382;51.484;11.476;2022-08-19T01:03:18;53.60;;;49.30;;
49488;SDS011;35382;51.484;11.476;2022-08-19T01:05:03;55.67;;;51.03;;
49488;SDS011;35382;51.484;11.476;2022-08-19T01:06:46;57.70;;;52.95;;
49488;SDS011;35382;51.484;11.476;2022-08-19T01:08:27;58.30;;;53.58;;
49488;SDS011;35382;51.484;11.476;2022-08-19T01:10:10;56.05;;;51.25;;
49488;SDS011;35382;51.484;11.476;2022-08-19T01:11:54;62.17;;;57.25;;
49488;SDS011;35382;51.484;11.476;2022-08-19T01:13:36;60.88;;;55.95;;
49488;SDS011;35382;51.484;11.476;2022-08-19T01:15:19;60.30;;;55.40;;
49488;SDS011;35382;51.484;11.476;2022-08-19T01:17:03;61.30;;;56.33;;
49488;SDS011;35382;51.484;11.476;2022-08-19T01:18:44;58.70;;;53.30;;
49488;SDS011;35382;51.484;11.476;2022-08-19T01:20:25;62.83;;;57.88;;
49488;SDS011;35382;51.484;11.476;2022-08-19T01:22:12;62.83;;;57.58;;
49488;SDS011;35382;51.484;11.476;2022-08-19T01:24:07;61.03;;;56.13;;
49488;SDS011;35382;51.484;11.476;2022-08-19T01:25:50;62.67;;;57.67;;
49488;SDS011;35382;51.484;11.476;2022-08-19T01:27:39;63.60;;;58.38;;
49488;SDS011;35382;51.484;11.476;2022-08-19T01:29:22;64.97;;;59.70;;
49488;SDS011;35382;51.484;11.476;2022-08-19T01:31:02;64.95;;;59.78;;
49488;SDS011;35382;51.484;11.476;2022-08-19T01:32:43;69.45;;;63.58;;
49488;SDS011;35382;51.484;11.476;2022-08-19T01:34:24;73.70;;;67.60;;
49488;SDS011;35382;51.484;11.476;2022-08-19T01:36:13;74.78;;;68.88;;
49488;SDS011;35382;51.484;11.476;2022-08-19T01:37:59;79.80;;;73.60;;
49488;SDS011;35382;51.484;11.476;2022-08-19T01:39:42;83.20;;;76.78;;
49488;SDS011;35382;51.484;11.476;2022-08-19T01:41:23;83.18;;;76.97;;
49488;SDS011;35382;51.484;11.476;2022-08-19T01:43:05;89.97;;;82.93;;
49488;SDS011;35382;51.484;11.476;2022-08-19T01:44:46;92.85;;;85.85;;
49488;SDS011;35382;51.484;11.476;2022-08-19T01:46:27;91.95;;;84.55;;
49488;SDS011;35382;51.484;11.476;2022-08-19T01:48:08;89.43;;;82.20;;
49488;SDS011;35382;51.484;11.476;2022-08-19T01:49:49;87.65;;;80.68;;
49488;SDS011;35382;51.484;11.476;2022-08-19T01:51:30;86.00;;;78.93;;
49488;SDS011;35382;51.484;11.476;2022-08-19T01:53:12;87.95;;;80.82;;
49488;SDS011;35382;51.484;11.476;2022-08-19T01:54:53;87.03;;;79.95;;
49488;SDS011;35382;51.484;11.476;2022-08-19T01:56:34;88.82;;;81.53;;
49488;SDS011;35382;51.484;11.476;2022-08-19T01:58:16;81.28;;;74.75;;
49488;SDS011;35382;51.484;11.476;2022-08-19T02:00:04;78.22;;;71.63;;
49488;SDS011;35382;51.484;11.476;2022-08-19T02:01:52;77.40;;;70.70;;
49488;SDS011;35382;51.484;11.476;2022-08-19T02:03:33;78.00;;;71.68;;
49488;SDS011;35382;51.484;11.476;2022-08-19T02:05:15;81.03;;;74.28;;
49488;SDS011;35382;51.484;11.476;2022-08-19T02:06:58;76.18;;;69.43;;
49488;SDS011;35382;51.484;11.476;2022-08-19T02:08:39;79.13;;;72.43;;
49488;SDS011;35382;51.484;11.476;2022-08-19T02:10:21;78.38;;;72.00;;
49488;SDS011;35382;51.484;11.476;2022-08-19T02:12:03;79.43;;;72.80;;
49488;SDS011;35382;51.484;11.476;2022-08-19T02:13:45;79.97;;;73.18;;
49488;SDS011;35382;51.484;11.476;2022-08-19T02:15:25;78.15;;;71.57;;
49488;SDS011;35382;51.484;11.476;2022-08-19T02:17:06;77.93;;;71.28;;
49488;SDS011;35382;51.484;11.476;2022-08-19T02:18:47;78.45;;;72.15;;
49488;SDS011;35382;51.484;11.476;2022-08-19T02:20:29;80.07;;;73.30;;
49488;SDS011;35382;51.484;11.476;2022-08-19T02:22:09;80.00;;;73.38;;
49488;SDS011;35382;51.484;11.476;2022-08-19T02:23:51;82.75;;;75.63;;
49488;SDS011;35382;51.484;11.476;2022-08-19T02:25:31;84.68;;;77.07;;
49488;SDS011;35382;51.484;11.476;2022-08-19T02:27:13;82.10;;;75.10;;
49488;SDS011;35382;51.484;11.476;2022-08-19T02:28:54;80.05;;;73.72;;
49488;SDS011;35382;51.484;11.476;2022-08-19T02:30:36;79.22;;;72.22;;
49488;SDS011;35382;51.484;11.476;2022-08-19T02:32:18;80.47;;;73.45;;
49488;SDS011;35382;51.484;11.476;2022-08-19T02:34:00;78.88;;;72.22;;
49488;SDS011;35382;51.484;11.476;2022-08-19T02:35:42;82.05;;;75.35;;
49488;SDS011;35382;51.484;11.476;2022-08-19T02:37:24;79.68;;;73.00;;
49488;SDS011;35382;51.484;11.476;2022-08-19T02:39:24;81.10;;;73.93;;
49488;SDS011;35382;51.484;11.476;2022-08-19T02:41:11;79.47;;;73.07;;
49488;SDS011;35382;51.484;11.476;2022-08-19T02:42:54;80.22;;;73.20;;
49488;SDS011;35382;51.484;11.476;2022-08-19T02:44:36;77.95;;;71.38;;
49488;SDS011;35382;51.484;11.476;2022-08-19T02:46:19;79.90;;;73.07;;
49488;SDS011;35382;51.484;11.476;2022-08-19T02:48:02;79.95;;;73.72;;
49488;SDS011;35382;51.484;11.476;2022-08-19T02:49:43;77.80;;;71.22;;
49488;SDS011;35382;51.484;11.476;2022-08-19T02:51:26;76.20;;;69.80;;
49488;SDS011;35382;51.484;11.476;2022-08-19T02:53:09;75.63;;;69.35;;
49488;SDS011;35382;51.484;11.476;2022-08-19T02:54:49;79.20;;;72.30;;
49488;SDS011;35382;51.484;11.476;2022-08-19T02:56:31;77.32;;;70.75;;
49488;SDS011;35382;51.484;11.476;2022-08-19T02:58:12;76.95;;;70.28;;
49488;SDS011;35382;51.484;11.476;2022-08-19T02:59:54;81.68;;;74.78;;
49488;SDS011;35382;51.484;11.476;2022-08-19T03:01:35;76.90;;;70.80;;
49488;SDS011;35382;51.484;11.476;2022-08-19T03:03:17;74.82;;;68.55;;
49488;SDS011;35382;51.484;11.476;2022-08-19T03:04:58;72.28;;;65.97;;
49488;SDS011;35382;51.484;11.476;2022-08-19T03:06:40;77.95;;;71.70;;
49488;SDS011;35382;51.484;11.476;2022-08-19T03:08:22;76.32;;;69.97;;
49488;SDS011;35382;51.484;11.476;2022-08-19T03:10:03;73.78;;;67.78;;
49488;SDS011;35382;51.484;11.476;2022-08-19T03:11:44;74.50;;;68.28;;
49488;SDS011;35382;51.484;11.476;2022-08-19T03:13:25;70.97;;;65.10;;
49488;SDS011;35382;51.484;11.476;2022-08-19T03:15:07;74.97;;;68.63;;
49488;SDS011;35382;51.484;11.476;2022-08-19T03:16:49;74.05;;;68.07;;
49488;SDS011;35382;51.484;11.476;2022-08-19T03:18:32;75.00;;;68.72;;
49488;SDS011;35382;51.484;11.476;2022-08-19T03:20:13;72.63;;;66.82;;
49488;SDS011;35382;51.484;11.476;2022-08-19T03:21:54;69.93;;;64.10;;
49488;SDS011;35382;51.484;11.476;2022-08-19T03:23:35;69.47;;;63.53;;
49488;SDS011;35382;51.484;11.476;2022-08-19T03:25:16;69.70;;;63.80;;
49488;SDS011;35382;51.484;11.476;2022-08-19T03:26:57;70.97;;;64.55;;
49488;SDS011;35382;51.484;11.476;2022-08-19T03:28:39;70.15;;;64.53;;
49488;SDS011;35382;51.484;11.476;2022-08-19T03:30:20;69.70;;;63.72;;
49488;SDS011;35382;51.484;11.476;2022-08-19T03:32:02;66.90;;;61.47;;
49488;SDS011;35382;51.484;11.476;2022-08-19T03:33:44;69.55;;;63.50;;
49488;SDS011;35382;51.484;11.476;2022-08-19T03:35:25;71.28;;;65.40;;
49488;SDS011;35382;51.484;11.476;2022-08-19T03:37:08;67.25;;;61.42;;
49488;SDS011;35382;51.484;11.476;2022-08-19T03:38:53;66.43;;;61.03;;
49488;SDS011;35382;51.484;11.476;2022-08-19T03:40:36;67.97;;;61.92;;
49488;SDS011;35382;51.484;11.476;2022-08-19T03:42:17;68.82;;;63.30;;
49488;SDS011;35382;51.484;11.476;2022-08-19T03:43:58;70.63;;;64.72;;
49488;SDS011;35382;51.484;11.476;2022-08-19T03:45:39;67.15;;;61.60;;
49488;SDS011;35382;51.484;11.476;2022-08-19T03:47:20;65.18;;;59.78;;
49488;SDS011;35382;51.484;11.476;2022-08-19T03:49:02;65.18;;;59.65;;
49488;SDS011;35382;51.484;11.476;2022-08-19T03:50:47;67.70;;;62.15;;
49488;SDS011;35382;51.484;11.476;2022-08-19T03:52:28;65.60;;;60.00;;
49488;SDS011;35382;51.484;11.476;2022-08-19T03:54:11;66.25;;;60.53;;
49488;SDS011;35382;51.484;11.476;2022-08-19T03:55:54;63.88;;;58.38;;
49488;SDS011;35382;51.484;11.476;2022-08-19T03:57:36;63.92;;;58.47;;
49488;SDS011;35382;51.484;11.476;2022-08-19T03:59:22;65.85;;;60.17;;
49488;SDS011;35382;51.484;11.476;2022-08-19T04:01:07;63.72;;;58.50;;
49488;SDS011;35382;51.484;11.476;2022-08-19T04:02:51;61.28;;;56.03;;
49488;SDS011;35382;51.484;11.476;2022-08-19T04:04:32;58.65;;;53.88;;
49488;SDS011;35382;51.484;11.476;2022-08-19T04:06:14;56.33;;;51.35;;
49488;SDS011;35382;51.484;11.476;2022-08-19T04:08:03;59.55;;;54.55;;
49488;SDS011;35382;51.484;11.476;2022-08-19T04:09:46;57.97;;;52.90;;
49488;SDS011;35382;51.484;11.476;2022-08-19T04:11:28;55.38;;;50.90;;
49488;SDS011;35382;51.484;11.476;2022-08-19T04:13:11;56.42;;;51.35;;
49488;SDS011;35382;51.484;11.476;2022-08-19T04:14:53;56.13;;;51.08;;
49488;SDS011;35382;51.484;11.476;2022-08-19T04:16:34;55.28;;;50.58;;
49488;SDS011;35382;51.484;11.476;2022-08-19T04:18:15;53.83;;;48.97;;
49488;SDS011;35382;51.484;11.476;2022-08-19T04:19:56;53.20;;;48.20;;
49488;SDS011;35382;51.484;11.476;2022-08-19T04:21:37;54.67;;;50.17;;
49488;SDS011;35382;51.484;11.476;2022-08-19T04:23:18;51.08;;;46.80;;
49488;SDS011;35382;51.484;11.476;2022-08-19T04:24:59;53.58;;;48.83;;
49488;SDS011;35382;51.484;11.476;2022-08-19T04:26:40;53.55;;;49.05;;
49488;SDS011;35382;51.484;11.476;2022-08-19T04:28:21;54.88;;;50.28;;
49488;SDS011;35382;51.484;11.476;2022-08-19T04:30:03;52.08;;;47.72;;
49488;SDS011;35382;51.484;11.476;2022-08-19T04:31:45;51.15;;;46.92;;
49488;SDS011;35382;51.484;11.476;2022-08-19T04:33:26;51.30;;;46.90;;
49488;SDS011;35382;51.484;11.476;2022-08-19T04:35:09;51.33;;;46.75;;
49488;SDS011;35382;51.484;11.476;2022-08-19T04:36:50;50.20;;;46.05;;
49488;SDS011;35382;51.484;11.476;2022-08-19T04:38:32;52.20;;;47.55;;
49488;SDS011;35382;51.484;11.476;2022-08-19T04:40:13;52.17;;;47.67;;
49488;SDS011;35382;51.484;11.476;2022-08-19T04:42:13;52.20;;;47.80;;
49488;SDS011;35382;51.484;11.476;2022-08-19T04:44:13;51.08;;;46.75;;
49488;SDS011;35382;51.484;11.476;2022-08-19T04:45:58;51.08;;;46.78;;
49488;SDS011;35382;51.484;11.476;2022-08-19T04:47:48;51.45;;;47.10;;
49488;SDS011;35382;51.484;11.476;2022-08-19T04:49:29;49.90;;;45.50;;
49488;SDS011;35382;51.484;11.476;2022-08-19T04:51:11;50.85;;;46.28;;
49488;SDS011;35382;51.484;11.476;2022-08-19T04:52:53;50.05;;;45.67;;
49488;SDS011;35382;51.484;11.476;2022-08-19T04:54:36;52.88;;;48.45;;
49488;SDS011;35382;51.484;11.476;2022-08-19T04:56:17;52.25;;;47.78;;
49488;SDS011;35382;51.484;11.476;2022-08-19T04:58:01;53.08;;;48.58;;
49488;SDS011;35382;51.484;11.476;2022-08-19T04:59:42;51.13;;;47.00;;
49488;SDS011;35382;51.484;11.476;2022-08-19T05:01:24;52.25;;;47.75;;
49488;SDS011;35382;51.484;11.476;2022-08-19T05:03:08;53.83;;;49.53;;
49488;SDS011;35382;51.484;11.476;2022-08-19T05:04:51;53.50;;;48.88;;
49488;SDS011;35382;51.484;11.476;2022-08-19T05:06:38;52.47;;;47.90;;
49488;SDS011;35382;51.484;11.476;2022-08-19T05:08:20;52.03;;;47.60;;
49488;SDS011;35382;51.484;11.476;2022-08-19T05:10:03;51.90;;;47.47;;
49488;SDS011;35382;51.484;11.476;2022-08-19T05:11:45;52.00;;;47.58;;
49488;SDS011;35382;51.484;11.476;2022-08-19T05:13:26;50.75;;;46.58;;
49488;SDS011;35382;51.484;11.476;2022-08-19T05:15:07;53.35;;;48.65;;
49488;SDS011;35382;51.484;11.476;2022-08-19T05:16:49;52.47;;;48.10;;
49488;SDS011;35382;51.484;11.476;2022-08-19T05:18:30;53.90;;;49.35;;
49488;SDS011;35382;51.484;11.476;2022-08-19T05:20:30;51.38;;;46.97;;
49488;SDS011;35382;51.484;11.476;2022-08-19T05:22:29;50.00;;;45.72;;
49488;SDS011;35382;51.484;11.476;2022-08-19T05:24:16;52.60;;;48.00;;
49488;SDS011;35382;51.484;11.476;2022-08-19T05:25:57;51.30;;;46.67;;
49488;SDS011;35382;51.484;11.476;2022-08-19T05:27:39;52.28;;;47.72;;
49488;SDS011;35382;51.484;11.476;2022-08-19T05:29:21;51.50;;;47.00;;
49488;SDS011;35382;51.484;11.476;2022-08-19T05:31:02;52.45;;;48.22;;
49488;SDS011;35382;51.484;11.476;2022-08-19T05:32:43;51.42;;;47.30;;
49488;SDS011;35382;51.484;11.476;2022-08-19T05:34:24;52.58;;;48.17;;
49488;SDS011;35382;51.484;11.476;2022-08-19T05:36:06;51.92;;;47.50;;
49488;SDS011;35382;51.484;11.476;2022-08-19T05:37:47;50.58;;;46.35;;
49488;SDS011;35382;51.484;11.476;2022-08-19T05:39:29;49.60;;;45.03;;
49488;SDS011;35382;51.484;11.476;2022-08-19T05:41:14;49.50;;;45.50;;
49488;SDS011;35382;51.484;11.476;2022-08-19T05:42:56;49.08;;;45.03;;
49488;SDS011;35382;51.484;11.476;2022-08-19T05:44:43;46.63;;;42.85;;
49488;SDS011;35382;51.484;11.476;2022-08-19T05:46:27;48.42;;;44.25;;
49488;SDS011;35382;51.484;11.476;2022-08-19T05:48:09;47.65;;;43.47;;
49488;SDS011;35382;51.484;11.476;2022-08-19T05:49:54;49.15;;;45.33;;
49488;SDS011;35382;51.484;11.476;2022-08-19T05:51:35;46.15;;;42.30;;
49488;SDS011;35382;51.484;11.476;2022-08-19T05:53:18;46.85;;;42.65;;
49488;SDS011;35382;51.484;11.476;2022-08-19T05:55:00;46.63;;;42.88;;
49488;SDS011;35382;51.484;11.476;2022-08-19T05:56:41;46.47;;;42.78;;
49488;SDS011;35382;51.484;11.476;2022-08-19T05:58:22;46.00;;;42.17;;
49488;SDS011;35382;51.484;11.476;2022-08-19T06:00:06;43.28;;;39.50;;
49488;SDS011;35382;51.484;11.476;2022-08-19T06:01:52;46.75;;;43.25;;
49488;SDS011;35382;51.484;11.476;2022-08-19T06:03:36;46.13;;;42.53;;
49488;SDS011;35382;51.484;11.476;2022-08-19T06:05:17;49.65;;;45.95;;
49488;SDS011;35382;51.484;11.476;2022-08-19T06:06:58;47.15;;;43.47;;
49488;SDS011;35382;51.484;11.476;2022-08-19T06:08:39;44.88;;;41.53;;
49488;SDS011;35382;51.484;11.476;2022-08-19T06:10:20;49.95;;;46.35;;
49488;SDS011;35382;51.484;11.476;2022-08-19T06:12:02;49.17;;;45.58;;
49488;SDS011;35382;51.484;11.476;2022-08-19T06:13:45;50.95;;;47.25;;
49488;SDS011;35382;51.484;11.476;2022-08-19T06:17:13;47.78;;;44.28;;
49488;SDS011;35382;51.484;11.476;2022-08-19T06:18:56;47.15;;;43.80;;
49488;SDS011;35382;51.484;11.476;2022-08-19T06:20:40;51.33;;;47.63;;
49488;SDS011;35382;51.484;11.476;2022-08-19T06:22:21;52.80;;;49.10;;
49488;SDS011;35382;51.484;11.476;2022-08-19T06:24:04;49.45;;;46.05;;
49488;SDS011;35382;51.484;11.476;2022-08-19T06:25:46;55.15;;;51.25;;
49488;SDS011;35382;51.484;11.476;2022-08-19T06:27:27;53.28;;;49.63;;
49488;SDS011;35382;51.484;11.476;2022-08-19T06:29:11;49.42;;;45.83;;
49488;SDS011;35382;51.484;11.476;2022-08-19T06:30:53;54.53;;;50.75;;
49488;SDS011;35382;51.484;11.476;2022-08-19T06:32:34;59.00;;;55.20;;
49488;SDS011;35382;51.484;11.476;2022-08-19T06:34:15;52.90;;;49.42;;
49488;SDS011;35382;51.484;11.476;2022-08-19T06:35:57;57.42;;;53.85;;
49488;SDS011;35382;51.484;11.476;2022-08-19T06:37:38;52.78;;;49.40;;
49488;SDS011;35382;51.484;11.476;2022-08-19T06:39:20;56.80;;;53.10;;
49488;SDS011;35382;51.484;11.476;2022-08-19T06:41:04;54.72;;;51.15;;
49488;SDS011;35382;51.484;11.476;2022-08-19T06:42:45;56.33;;;52.75;;
49488;SDS011;35382;51.484;11.476;2022-08-19T06:44:27;59.03;;;55.70;;
49488;SDS011;35382;51.484;11.476;2022-08-19T06:46:11;56.80;;;53.40;;
49488;SDS011;35382;51.484;11.476;2022-08-19T06:47:57;61.70;;;57.88;;
49488;SDS011;35382;51.484;11.476;2022-08-19T06:49:38;59.90;;;56.40;;
49488;SDS011;35382;51.484;11.476;2022-08-19T06:51:19;56.83;;;53.63;;
49488;SDS011;35382;51.484;11.476;2022-08-19T06:53:01;61.47;;;57.80;;
49488;SDS011;35382;51.484;11.476;2022-08-19T06:54:43;63.40;;;59.78;;
49488;SDS011;35382;51.484;11.476;2022-08-19T06:56:25;58.08;;;54.70;;
49488;SDS011;35382;51.484;11.476;2022-08-19T06:58:15;61.95;;;58.38;;
49488;SDS011;35382;51.484;11.476;2022-08-19T06:59:55;61.78;;;58.03;;
49488;SDS011;35382;51.484;11.476;2022-08-19T07:01:37;61.40;;;57.78;;
49488;SDS011;35382;51.484;11.476;2022-08-19T07:03:20;58.15;;;54.83;;
49488;SDS011;35382;51.484;11.476;2022-08-19T07:05:01;61.35;;;57.55;;
49488;SDS011;35382;51.484;11.476;2022-08-19T07:06:44;62.28;;;58.47;;
49488;SDS011;35382;51.484;11.476;2022-08-19T07:08:26;61.30;;;57.72;;
49488;SDS011;35382;51.484;11.476;2022-08-19T07:10:07;59.45;;;55.97;;
49488;SDS011;35382;51.484;11.476;2022-08-19T07:11:50;64.45;;;60.67;;
49488;SDS011;35382;51.484;11.476;2022-08-19T07:13:33;64.78;;;60.85;;
49488;SDS011;35382;51.484;11.476;2022-08-19T07:15:17;69.93;;;65.82;;
49488;SDS011;35382;51.484;11.476;2022-08-19T07:16:58;69.15;;;65.28;;
49488;SDS011;35382;51.484;11.476;2022-08-19T07:18:39;69.55;;;65.50;;
49488;SDS011;35382;51.484;11.476;2022-08-19T07:20:20;72.25;;;67.80;;
49488;SDS011;35382;51.484;11.476;2022-08-19T07:22:02;69.10;;;65.07;;
49488;SDS011;35382;51.484;11.476;2022-08-19T07:23:44;67.70;;;63.75;;
49488;SDS011;35382;51.484;11.476;2022-08-19T07:25:25;69.63;;;65.47;;
49488;SDS011;35382;51.484;11.476;2022-08-19T07:27:07;70.25;;;66.15;;
49488;SDS011;35382;51.484;11.476;2022-08-19T07:28:50;70.97;;;67.00;;
49488;SDS011;35382;51.484;11.476;2022-08-19T07:30:31;71.68;;;67.50;;
49488;SDS011;35382;51.484;11.476;2022-08-19T07:32:12;70.82;;;66.70;;
49488;SDS011;35382;51.484;11.476;2022-08-19T07:33:54;71.00;;;66.97;;
49488;SDS011;35382;51.484;11.476;2022-08-19T07:35:38;71.70;;;67.65;;
49488;SDS011;35382;51.484;11.476;2022-08-19T07:37:19;70.55;;;66.45;;
49488;SDS011;35382;51.484;11.476;2022-08-19T07:39:01;76.68;;;72.30;;
49488;SDS011;35382;51.484;11.476;2022-08-19T07:40:45;74.32;;;69.93;;
49488;SDS011;35382;51.484;11.476;2022-08-19T07:42:26;75.53;;;71.20;;
49488;SDS011;35382;51.484;11.476;2022-08-19T07:44:11;74.35;;;69.95;;
49488;SDS011;35382;51.484;11.476;2022-08-19T07:45:53;76.75;;;72.30;;
49488;SDS011;35382;51.484;11.476;2022-08-19T07:47:37;78.57;;;74.18;;
49488;SDS011;35382;51.484;11.476;2022-08-19T07:49:20;78.75;;;74.25;;
49488;SDS011;35382;51.484;11.476;2022-08-19T07:51:03;79.57;;;75.20;;
49488;SDS011;35382;51.484;11.476;2022-08-19T07:54:31;85.97;;;81.15;;
49488;SDS011;35382;51.484;11.476;2022-08-19T07:56:14;79.88;;;75.22;;
49488;SDS011;35382;51.484;11.476;2022-08-19T07:57:56;78.97;;;74.18;;
49488;SDS011;35382;51.484;11.476;2022-08-19T07:59:37;76.53;;;71.88;;
49488;SDS011;35382;51.484;11.476;2022-08-19T08:01:18;76.53;;;71.93;;
49488;SDS011;35382;51.484;11.476;2022-08-19T08:03:05;80.22;;;75.50;;
49488;SDS011;35382;51.484;11.476;2022-08-19T08:04:46;84.38;;;79.60;;
49488;SDS011;35382;51.484;11.476;2022-08-19T08:06:45;79.70;;;75.30;;
49488;SDS011;35382;51.484;11.476;2022-08-19T08:08:44;82.75;;;78.13;;
49488;SDS011;35382;51.484;11.476;2022-08-19T08:10:44;85.68;;;80.97;;
49488;SDS011;35382;51.484;11.476;2022-08-19T08:12:30;84.40;;;79.65;;
49488;SDS011;35382;51.484;11.476;2022-08-19T08:14:18;83.75;;;78.85;;
49488;SDS011;35382;51.484;11.476;2022-08-19T08:16:10;78.38;;;73.78;;
49488;SDS011;35382;51.484;11.476;2022-08-19T08:17:51;81.25;;;76.70;;
49488;SDS011;35382;51.484;11.476;2022-08-19T08:19:32;83.47;;;78.85;;
49488;SDS011;35382;51.484;11.476;2022-08-19T08:21:13;81.38;;;76.60;;
49488;SDS011;35382;51.484;11.476;2022-08-19T08:22:54;85.28;;;80.28;;
49488;SDS011;35382;51.484;11.476;2022-08-19T08:24:54;76.15;;;71.70;;
49488;SDS011;35382;51.484;11.476;2022-08-19T08:26:35;77.25;;;72.85;;
49488;SDS011;35382;51.484;11.476;2022-08-19T08:28:16;87.25;;;82.18;;
49488;SDS011;35382;51.484;11.476;2022-08-19T08:29:58;79.60;;;75.15;;
49488;SDS011;35382;51.484;11.476;2022-08-19T08:31:39;84.78;;;79.97;;
49488;SDS011;35382;51.484;11.476;2022-08-19T08:33:22;86.32;;;81.38;;
49488;SDS011;35382;51.484;11.476;2022-08-19T08:35:06;84.95;;;80.32;;
49488;SDS011;35382;51.484;11.476;2022-08-19T08:36:50;88.63;;;83.93;;
49488;SDS011;35382;51.484;11.476;2022-08-19T08:38:32;89.97;;;85.20;;
49488;SDS011;35382;51.484;11.476;2022-08-19T08:40:38;87.80;;;83.15;;
49488;SDS011;35382;51.484;11.476;2022-08-19T08:42:21;90.63;;;85.75;;
49488;SDS011;35382;51.484;11.476;2022-08-19T08:44:11;87.90;;;83.38;;
49488;SDS011;35382;51.484;11.476;2022-08-19T08:46:06;90.38;;;85.55;;
49488;SDS011;35382;51.484;11.476;2022-08-19T08:47:50;87.85;;;83.20;;
49488;SDS011;35382;51.484;11.476;2022-08-19T08:49:55;89.28;;;84.68;;
49488;SDS011;35382;51.484;11.476;2022-08-19T08:51:47;93.47;;;88.80;;
49488;SDS011;35382;51.484;11.476;2022-08-19T08:53:35;89.50;;;85.00;;
49488;SDS011;35382;51.484;11.476;2022-08-19T08:55:19;89.93;;;85.45;;
49488;SDS011;35382;51.484;11.476;2022-08-19T08:57:03;94.57;;;89.95;;
49488;SDS011;35382;51.484;11.476;2022-08-19T08:58:58;90.65;;;86.05;;
49488;SDS011;35382;51.484;11.476;2022-08-19T09:00:43;90.93;;;85.85;;
49488;SDS011;35382;51.484;11.476;2022-08-19T09:02:25;90.18;;;85.60;;
49488;SDS011;35382;51.484;11.476;2022-08-19T09:04:07;94.70;;;89.93;;
49488;SDS011;35382;51.484;11.476;2022-08-19T09:05:52;93.75;;;89.03;;
49488;SDS011;35382;51.484;11.476;2022-08-19T09:09:37;92.90;;;88.10;;
49488;SDS011;35382;51.484;11.476;2022-08-19T09:11:32;89.68;;;85.15;;
49488;SDS011;35382;51.484;11.476;2022-08-19T09:15:15;88.97;;;84.30;;
49488;SDS011;35382;51.484;11.476;2022-08-19T09:16:58;91.25;;;86.47;;
49488;SDS011;35382;51.484;11.476;2022-08-19T09:18:51;88.20;;;83.65;;
49488;SDS011;35382;51.484;11.476;2022-08-19T09:20:34;87.20;;;82.72;;
49488;SDS011;35382;51.484;11.476;2022-08-19T09:22:15;89.50;;;84.82;;
49488;SDS011;35382;51.484;11.476;2022-08-19T09:23:56;83.55;;;79.00;;
49488;SDS011;35382;51.484;11.476;2022-08-19T09:25:38;85.13;;;80.55;;
49488;SDS011;35382;51.484;11.476;2022-08-19T09:27:20;84.15;;;79.55;;
49488;SDS011;35382;51.484;11.476;2022-08-19T09:29:04;81.10;;;76.65;;
49488;SDS011;35382;51.484;11.476;2022-08-19T09:30:46;81.82;;;77.20;;
49488;SDS011;35382;51.484;11.476;2022-08-19T09:32:27;80.47;;;76.10;;
49488;SDS011;35382;51.484;11.476;2022-08-19T09:34:07;80.35;;;75.80;;
49488;SDS011;35382;51.484;11.476;2022-08-19T09:35:48;77.78;;;73.22;;
49488;SDS011;35382;51.484;11.476;2022-08-19T09:37:29;74.43;;;70.15;;
49488;SDS011;35382;51.484;11.476;2022-08-19T09:39:11;77.18;;;72.78;;
49488;SDS011;35382;51.484;11.476;2022-08-19T09:40:51;79.47;;;75.07;;
49488;SDS011;35382;51.484;11.476;2022-08-19T09:42:33;74.05;;;69.70;;
49488;SDS011;35382;51.484;11.476;2022-08-19T09:44:14;78.72;;;74.32;;
49488;SDS011;35382;51.484;11.476;2022-08-19T09:45:55;72.85;;;68.47;;
49488;SDS011;35382;51.484;11.476;2022-08-19T09:47:36;73.07;;;68.68;;
49488;SDS011;35382;51.484;11.476;2022-08-19T09:49:18;71.40;;;67.38;;
49488;SDS011;35382;51.484;11.476;2022-08-19T09:51:06;69.25;;;65.30;;
49488;SDS011;35382;51.484;11.476;2022-08-19T09:52:49;61.40;;;57.43;;
49488;SDS011;35382;51.484;11.476;2022-08-19T09:54:32;61.45;;;57.72;;
49488;SDS011;35382;51.484;11.476;2022-08-19T09:56:14;59.75;;;56.15;;
49488;SDS011;35382;51.484;11.476;2022-08-19T09:57:55;66.43;;;62.63;;
49488;SDS011;35382;51.484;11.476;2022-08-19T09:59:37;64.55;;;60.88;;
49488;SDS011;35382;51.484;11.476;2022-08-19T10:01:21;68.95;;;65.05;;